sensor_id;sensor_type;location;lat;lon;timestamp;temperature;humidity
18105;DHT22;9179;50.968;3.134;2023-05-21T00:01:03;13.90;99.90
18105;DHT22;9179;50.968;3.134;2023-05-21T00:03:31;13.90;99.90
18105;DHT22;9179;50.968;3.134;2023-05-21T00:06:00;13.90;99.90
18105;DHT22;9179;50.968;3.134;2023-05-21T00:08:28;13.90;99.90
18105;DHT22;9179;50.968;3.134;2023-05-21T00:10:55;13.90;99.90
18105;DHT22;9179;50.968;3.134;2023-05-21T00:13:22;13.80;99.90
18105;DHT22;9179;50.968;3.134;2023-05-21T00:15:50;13.80;99.90
18105;DHT22;9179;50.968;3.134;2023-05-21T00:18:17;13.80;99.90
18105;DHT22;9179;50.968;3.134;2023-05-21T00:20:44;13.80;99.90
18105;DHT22;9179;50.968;3.134;2023-05-21T00:23:12;13.80;99.90
18105;DHT22;9179;50.968;3.134;2023-05-21T00:25:43;13.70;99.90
18105;DHT22;9179;50.968;3.134;2023-05-21T00:28:11;13.70;99.90
18105;DHT22;9179;50.968;3.134;2023-05-21T00:30:38;13.70;99.90
18105;DHT22;9179;50.968;3.134;2023-05-21T00:33:06;13.70;99.90
18105;DHT22;9179;50.968;3.134;2023-05-21T00:35:35;13.70;99.90
18105;DHT22;9179;50.968;3.134;2023-05-21T00:38:01;13.70;99.90
18105;DHT22;9179;50.968;3.134;2023-05-21T00:40:29;13.70;99.90
18105;DHT22;9179;50.968;3.134;2023-05-21T00:42:56;13.60;99.90
18105;DHT22;9179;50.968;3.134;2023-05-21T00:45:23;13.70;99.90
18105;DHT22;9179;50.968;3.134;2023-05-21T00:47:51;13.70;99.90
18105;DHT22;9179;50.968;3.134;2023-05-21T00:50:21;13.60;99.90
18105;DHT22;9179;50.968;3.134;2023-05-21T00:52:48;13.60;99.90
18105;DHT22;9179;50.968;3.134;2023-05-21T00:55:16;13.60;99.90
18105;DHT22;9179;50.968;3.134;2023-05-21T00:57:43;13.60;99.90
18105;DHT22;9179;50.968;3.134;2023-05-21T01:00:13;13.60;99.90
18105;DHT22;9179;50.968;3.134;2023-05-21T01:02:41;13.60;99.90
18105;DHT22;9179;50.968;3.134;2023-05-21T01:05:09;13.60;99.90
18105;DHT22;9179;50.968;3.134;2023-05-21T01:07:39;13.60;99.90
18105;DHT22;9179;50.968;3.134;2023-05-21T01:10:09;13.60;99.90
18105;DHT22;9179;50.968;3.134;2023-05-21T01:12:38;13.60;99.90
18105;DHT22;9179;50.968;3.134;2023-05-21T01:15:06;13.60;99.90
18105;DHT22;9179;50.968;3.134;2023-05-21T01:17:35;13.60;99.90
18105;DHT22;9179;50.968;3.134;2023-05-21T01:20:04;13.50;99.90
18105;DHT22;9179;50.968;3.134;2023-05-21T01:22:34;13.50;99.90
18105;DHT22;9179;50.968;3.134;2023-05-21T01:25:06;13.50;99.90
18105;DHT22;9179;50.968;3.134;2023-05-21T01:27:33;13.40;99.90
18105;DHT22;9179;50.968;3.134;2023-05-21T01:30:00;13.50;99.90
18105;DHT22;9179;50.968;3.134;2023-05-21T01:32:33;13.40;99.90
18105;DHT22;9179;50.968;3.134;2023-05-21T01:35:07;13.40;99.90
18105;DHT22;9179;50.968;3.134;2023-05-21T01:37:37;13.40;99.90
18105;DHT22;9179;50.968;3.134;2023-05-21T01:40:15;13.40;99.90
18105;DHT22;9179;50.968;3.134;2023-05-21T01:42:44;13.40;99.90
18105;DHT22;9179;50.968;3.134;2023-05-21T01:45:13;13.40;99.90
18105;DHT22;9179;50.968;3.134;2023-05-21T01:47:44;13.40;99.90
18105;DHT22;9179;50.968;3.134;2023-05-21T01:50:13;13.40;99.90
18105;DHT22;9179;50.968;3.134;2023-05-21T01:52:48;13.40;99.90
18105;DHT22;9179;50.968;3.134;2023-05-21T01:55:17;13.30;99.90
18105;DHT22;9179;50.968;3.134;2023-05-21T01:57:44;13.30;99.90
18105;DHT22;9179;50.968;3.134;2023-05-21T02:00:12;13.30;99.90
18105;DHT22;9179;50.968;3.134;2023-05-21T02:02:39;13.20;99.90
18105;DHT22;9179;50.968;3.134;2023-05-21T02:05:07;13.10;99.90
18105;DHT22;9179;50.968;3.134;2023-05-21T02:07:34;13.10;99.90
18105;DHT22;9179;50.968;3.134;2023-05-21T02:10:02;13.10;99.90
18105;DHT22;9179;50.968;3.134;2023-05-21T02:12:30;13.10;99.90
18105;DHT22;9179;50.968;3.134;2023-05-21T02:14:57;13.00;99.90
18105;DHT22;9179;50.968;3.134;2023-05-21T02:17:24;13.00;99.90
18105;DHT22;9179;50.968;3.134;2023-05-21T02:19:55;13.00;99.90
18105;DHT22;9179;50.968;3.134;2023-05-21T02:22:22;12.90;99.90
18105;DHT22;9179;50.968;3.134;2023-05-21T02:24:49;12.90;99.90
18105;DHT22;9179;50.968;3.134;2023-05-21T02:27:16;12.90;99.90
18105;DHT22;9179;50.968;3.134;2023-05-21T02:29:44;12.90;99.90
18105;DHT22;9179;50.968;3.134;2023-05-21T02:32:11;13.00;99.90
18105;DHT22;9179;50.968;3.134;2023-05-21T02:34:38;13.00;99.90
18105;DHT22;9179;50.968;3.134;2023-05-21T02:37:07;13.00;99.90
18105;DHT22;9179;50.968;3.134;2023-05-21T02:39:34;13.00;99.90
18105;DHT22;9179;50.968;3.134;2023-05-21T02:42:01;13.00;99.90
18105;DHT22;9179;50.968;3.134;2023-05-21T02:44:28;13.00;99.90
18105;DHT22;9179;50.968;3.134;2023-05-21T02:46:56;13.00;99.90
18105;DHT22;9179;50.968;3.134;2023-05-21T02:49:23;13.00;99.90
18105;DHT22;9179;50.968;3.134;2023-05-21T02:51:50;13.00;99.90
18105;DHT22;9179;50.968;3.134;2023-05-21T02:54:17;13.00;99.90
18105;DHT22;9179;50.968;3.134;2023-05-21T02:56:44;13.10;99.90
18105;DHT22;9179;50.968;3.134;2023-05-21T02:59:11;13.10;99.90
18105;DHT22;9179;50.968;3.134;2023-05-21T03:01:38;13.00;99.90
18105;DHT22;9179;50.968;3.134;2023-05-21T03:04:07;13.00;99.90
18105;DHT22;9179;50.968;3.134;2023-05-21T03:06:34;13.00;99.90
18105;DHT22;9179;50.968;3.134;2023-05-21T03:09:01;13.00;99.90
18105;DHT22;9179;50.968;3.134;2023-05-21T03:11:28;13.00;99.90
18105;DHT22;9179;50.968;3.134;2023-05-21T03:13:55;13.00;99.90
18105;DHT22;9179;50.968;3.134;2023-05-21T03:16:22;13.00;99.90
18105;DHT22;9179;50.968;3.134;2023-05-21T03:18:49;13.00;99.90
18105;DHT22;9179;50.968;3.134;2023-05-21T03:21:17;13.00;99.90
18105;DHT22;9179;50.968;3.134;2023-05-21T03:23:47;13.00;99.90
18105;DHT22;9179;50.968;3.134;2023-05-21T03:26:14;13.00;99.90
18105;DHT22;9179;50.968;3.134;2023-05-21T03:28:41;13.00;99.90
18105;DHT22;9179;50.968;3.134;2023-05-21T03:31:08;13.00;99.90
18105;DHT22;9179;50.968;3.134;2023-05-21T03:33:34;13.00;99.90
18105;DHT22;9179;50.968;3.134;2023-05-21T03:36:02;13.00;99.90
18105;DHT22;9179;50.968;3.134;2023-05-21T03:38:30;12.90;99.90
18105;DHT22;9179;50.968;3.134;2023-05-21T03:40:57;13.00;99.90
18105;DHT22;9179;50.968;3.134;2023-05-21T03:43:24;12.90;99.90
18105;DHT22;9179;50.968;3.134;2023-05-21T03:45:51;13.00;99.90
18105;DHT22;9179;50.968;3.134;2023-05-21T03:48:18;13.00;99.90
18105;DHT22;9179;50.968;3.134;2023-05-21T03:50:45;13.00;99.90
18105;DHT22;9179;50.968;3.134;2023-05-21T03:53:12;13.00;99.90
18105;DHT22;9179;50.968;3.134;2023-05-21T03:55:41;13.00;99.90
18105;DHT22;9179;50.968;3.134;2023-05-21T03:58:07;13.00;99.90
18105;DHT22;9179;50.968;3.134;2023-05-21T04:00:35;13.00;99.90
18105;DHT22;9179;50.968;3.134;2023-05-21T04:03:02;13.10;99.90
18105;DHT22;9179;50.968;3.134;2023-05-21T04:05:29;13.20;99.90
18105;DHT22;9179;50.968;3.134;2023-05-21T04:07:57;13.20;99.90
18105;DHT22;9179;50.968;3.134;2023-05-21T04:10:24;13.20;99.90
18105;DHT22;9179;50.968;3.134;2023-05-21T04:12:53;13.20;99.90
18105;DHT22;9179;50.968;3.134;2023-05-21T04:15:20;13.30;99.90
18105;DHT22;9179;50.968;3.134;2023-05-21T04:17:47;13.40;99.90
18105;DHT22;9179;50.968;3.134;2023-05-21T04:20:14;13.40;99.90
18105;DHT22;9179;50.968;3.134;2023-05-21T04:22:42;13.40;99.90
18105;DHT22;9179;50.968;3.134;2023-05-21T04:25:09;13.40;99.90
18105;DHT22;9179;50.968;3.134;2023-05-21T04:27:36;13.50;99.90
18105;DHT22;9179;50.968;3.134;2023-05-21T04:30:05;13.60;99.90
18105;DHT22;9179;50.968;3.134;2023-05-21T04:32:32;13.70;99.90
18105;DHT22;9179;50.968;3.134;2023-05-21T04:34:59;13.70;99.90
18105;DHT22;9179;50.968;3.134;2023-05-21T04:37:27;13.80;99.90
18105;DHT22;9179;50.968;3.134;2023-05-21T04:39:56;13.80;99.90
18105;DHT22;9179;50.968;3.134;2023-05-21T04:42:23;13.90;99.90
18105;DHT22;9179;50.968;3.134;2023-05-21T04:44:50;14.00;99.90
18105;DHT22;9179;50.968;3.134;2023-05-21T04:47:21;14.00;99.90
18105;DHT22;9179;50.968;3.134;2023-05-21T04:49:48;14.20;99.90
18105;DHT22;9179;50.968;3.134;2023-05-21T04:52:15;14.20;99.90
18105;DHT22;9179;50.968;3.134;2023-05-21T04:54:42;14.30;99.90
18105;DHT22;9179;50.968;3.134;2023-05-21T04:57:10;14.40;99.90
18105;DHT22;9179;50.968;3.134;2023-05-21T04:59:37;14.50;99.90
18105;DHT22;9179;50.968;3.134;2023-05-21T05:02:04;14.60;99.90
18105;DHT22;9179;50.968;3.134;2023-05-21T05:04:33;14.80;99.90
18105;DHT22;9179;50.968;3.134;2023-05-21T05:06:59;15.10;99.90
18105;DHT22;9179;50.968;3.134;2023-05-21T05:09:26;15.30;99.90
18105;DHT22;9179;50.968;3.134;2023-05-21T05:11:54;15.40;99.90
18105;DHT22;9179;50.968;3.134;2023-05-21T05:14:21;15.60;99.90
18105;DHT22;9179;50.968;3.134;2023-05-21T05:16:48;15.70;99.90
18105;DHT22;9179;50.968;3.134;2023-05-21T05:19:15;15.90;99.90
18105;DHT22;9179;50.968;3.134;2023-05-21T05:21:44;16.20;99.90
18105;DHT22;9179;50.968;3.134;2023-05-21T05:24:10;16.40;99.90
18105;DHT22;9179;50.968;3.134;2023-05-21T05:26:37;17.00;99.90
18105;DHT22;9179;50.968;3.134;2023-05-21T05:29:04;17.00;99.90
18105;DHT22;9179;50.968;3.134;2023-05-21T05:31:31;17.00;99.90
18105;DHT22;9179;50.968;3.134;2023-05-21T05:33:58;17.00;99.90
18105;DHT22;9179;50.968;3.134;2023-05-21T05:36:25;17.00;99.90
18105;DHT22;9179;50.968;3.134;2023-05-21T05:38:53;17.20;99.90
18105;DHT22;9179;50.968;3.134;2023-05-21T05:41:20;17.20;99.90
18105;DHT22;9179;50.968;3.134;2023-05-21T05:43:47;17.10;99.90
18105;DHT22;9179;50.968;3.134;2023-05-21T05:46:14;17.10;99.90
18105;DHT22;9179;50.968;3.134;2023-05-21T05:48:41;17.20;99.90
18105;DHT22;9179;50.968;3.134;2023-05-21T05:51:08;17.40;99.90
18105;DHT22;9179;50.968;3.134;2023-05-21T05:53:36;17.40;99.90
18105;DHT22;9179;50.968;3.134;2023-05-21T05:56:05;17.40;99.90
18105;DHT22;9179;50.968;3.134;2023-05-21T05:58:32;17.70;99.90
18105;DHT22;9179;50.968;3.134;2023-05-21T06:00:59;17.70;99.90
18105;DHT22;9179;50.968;3.134;2023-05-21T06:03:26;17.80;99.90
18105;DHT22;9179;50.968;3.134;2023-05-21T06:05:54;18.00;99.90
18105;DHT22;9179;50.968;3.134;2023-05-21T06:08:21;18.20;99.90
18105;DHT22;9179;50.968;3.134;2023-05-21T06:10:47;18.30;99.90
18105;DHT22;9179;50.968;3.134;2023-05-21T06:13:16;18.70;99.90
18105;DHT22;9179;50.968;3.134;2023-05-21T06:15:43;20.00;99.90
18105;DHT22;9179;50.968;3.134;2023-05-21T06:18:10;20.30;99.90
18105;DHT22;9179;50.968;3.134;2023-05-21T06:20:37;20.70;99.90
18105;DHT22;9179;50.968;3.134;2023-05-21T06:23:03;20.80;99.90
18105;DHT22;9179;50.968;3.134;2023-05-21T06:25:31;20.50;99.90
18105;DHT22;9179;50.968;3.134;2023-05-21T06:27:58;20.20;99.90
18105;DHT22;9179;50.968;3.134;2023-05-21T06:30:26;20.20;99.90
18105;DHT22;9179;50.968;3.134;2023-05-21T06:32:53;20.00;99.90
18105;DHT22;9179;50.968;3.134;2023-05-21T06:35:22;20.00;99.90
18105;DHT22;9179;50.968;3.134;2023-05-21T06:37:48;20.60;99.90
18105;DHT22;9179;50.968;3.134;2023-05-21T06:40:16;20.60;99.90
18105;DHT22;9179;50.968;3.134;2023-05-21T06:42:42;20.40;99.90
18105;DHT22;9179;50.968;3.134;2023-05-21T06:45:10;21.00;99.90
18105;DHT22;9179;50.968;3.134;2023-05-21T06:47:39;21.60;99.90
18105;DHT22;9179;50.968;3.134;2023-05-21T06:50:06;22.10;99.90
18105;DHT22;9179;50.968;3.134;2023-05-21T06:52:33;21.80;99.90
18105;DHT22;9179;50.968;3.134;2023-05-21T06:55:00;21.20;99.90
18105;DHT22;9179;50.968;3.134;2023-05-21T06:57:27;20.90;99.90
18105;DHT22;9179;50.968;3.134;2023-05-21T06:59:54;21.40;99.90
18105;DHT22;9179;50.968;3.134;2023-05-21T07:02:21;21.50;99.90
18105;DHT22;9179;50.968;3.134;2023-05-21T07:04:49;21.70;99.90
18105;DHT22;9179;50.968;3.134;2023-05-21T07:07:18;22.20;99.90
18105;DHT22;9179;50.968;3.134;2023-05-21T07:09:45;22.60;99.90
18105;DHT22;9179;50.968;3.134;2023-05-21T07:12:12;23.40;99.90
18105;DHT22;9179;50.968;3.134;2023-05-21T07:14:39;23.80;99.90
18105;DHT22;9179;50.968;3.134;2023-05-21T07:17:05;24.00;99.90
18105;DHT22;9179;50.968;3.134;2023-05-21T07:19:32;24.00;99.90
18105;DHT22;9179;50.968;3.134;2023-05-21T07:22:01;24.10;99.90
18105;DHT22;9179;50.968;3.134;2023-05-21T07:24:28;24.10;99.90
18105;DHT22;9179;50.968;3.134;2023-05-21T07:26:55;24.50;99.90
18105;DHT22;9179;50.968;3.134;2023-05-21T07:29:21;24.80;99.90
18105;DHT22;9179;50.968;3.134;2023-05-21T07:31:48;25.40;99.90
18105;DHT22;9179;50.968;3.134;2023-05-21T07:34:15;26.10;99.90
18105;DHT22;9179;50.968;3.134;2023-05-21T07:36:42;26.00;99.90
18105;DHT22;9179;50.968;3.134;2023-05-21T07:39:11;25.10;99.90
18105;DHT22;9179;50.968;3.134;2023-05-21T07:41:37;25.00;99.90
18105;DHT22;9179;50.968;3.134;2023-05-21T07:44:04;25.10;99.90
18105;DHT22;9179;50.968;3.134;2023-05-21T07:46:31;24.90;99.90
18105;DHT22;9179;50.968;3.134;2023-05-21T07:48:58;24.60;99.90
18105;DHT22;9179;50.968;3.134;2023-05-21T07:51:25;24.90;99.90
18105;DHT22;9179;50.968;3.134;2023-05-21T07:53:53;25.10;99.90
18105;DHT22;9179;50.968;3.134;2023-05-21T07:56:23;25.40;99.90
18105;DHT22;9179;50.968;3.134;2023-05-21T07:58:51;25.20;99.90
18105;DHT22;9179;50.968;3.134;2023-05-21T08:01:18;25.60;99.90
18105;DHT22;9179;50.968;3.134;2023-05-21T08:03:45;25.70;99.90
18105;DHT22;9179;50.968;3.134;2023-05-21T08:06:12;25.90;99.90
18105;DHT22;9179;50.968;3.134;2023-05-21T08:08:39;25.70;99.90
18105;DHT22;9179;50.968;3.134;2023-05-21T08:11:06;25.70;99.90
18105;DHT22;9179;50.968;3.134;2023-05-21T08:13:34;25.30;99.90
18105;DHT22;9179;50.968;3.134;2023-05-21T08:16:01;25.90;99.90
18105;DHT22;9179;50.968;3.134;2023-05-21T08:18:28;26.80;99.90
18105;DHT22;9179;50.968;3.134;2023-05-21T08:20:55;27.30;98.80
18105;DHT22;9179;50.968;3.134;2023-05-21T08:23:23;27.80;98.10
18105;DHT22;9179;50.968;3.134;2023-05-21T08:25:51;27.50;96.70
18105;DHT22;9179;50.968;3.134;2023-05-21T08:28:20;27.50;97.00
18105;DHT22;9179;50.968;3.134;2023-05-21T08:30:48;27.40;95.20
18105;DHT22;9179;50.968;3.134;2023-05-21T08:33:15;26.90;95.80
18105;DHT22;9179;50.968;3.134;2023-05-21T08:35:42;26.90;95.70
18105;DHT22;9179;50.968;3.134;2023-05-21T08:38:09;27.30;95.80
18105;DHT22;9179;50.968;3.134;2023-05-21T08:40:36;27.60;94.30
18105;DHT22;9179;50.968;3.134;2023-05-21T08:43:03;27.00;93.90
18105;DHT22;9179;50.968;3.134;2023-05-21T08:45:33;27.10;94.30
18105;DHT22;9179;50.968;3.134;2023-05-21T08:48:03;27.30;94.30
18105;DHT22;9179;50.968;3.134;2023-05-21T08:50:31;27.50;93.80
18105;DHT22;9179;50.968;3.134;2023-05-21T08:52:59;28.00;93.40
18105;DHT22;9179;50.968;3.134;2023-05-21T08:55:26;28.20;92.10
18105;DHT22;9179;50.968;3.134;2023-05-21T08:57:54;27.80;92.30
18105;DHT22;9179;50.968;3.134;2023-05-21T09:00:21;27.70;91.90
18105;DHT22;9179;50.968;3.134;2023-05-21T09:02:50;27.40;92.20
18105;DHT22;9179;50.968;3.134;2023-05-21T09:05:21;27.20;91.90
18105;DHT22;9179;50.968;3.134;2023-05-21T09:07:53;27.10;92.80
18105;DHT22;9179;50.968;3.134;2023-05-21T09:10:23;27.20;93.10
18105;DHT22;9179;50.968;3.134;2023-05-21T09:12:52;28.00;92.20
18105;DHT22;9179;50.968;3.134;2023-05-21T09:15:19;26.80;91.90
18105;DHT22;9179;50.968;3.134;2023-05-21T09:17:47;27.30;92.00
18105;DHT22;9179;50.968;3.134;2023-05-21T09:20:14;27.50;92.20
18105;DHT22;9179;50.968;3.134;2023-05-21T09:22:44;28.20;91.20
18105;DHT22;9179;50.968;3.134;2023-05-21T09:25:12;28.40;90.40
18105;DHT22;9179;50.968;3.134;2023-05-21T09:27:39;29.10;90.00
18105;DHT22;9179;50.968;3.134;2023-05-21T09:30:09;29.10;87.20
18105;DHT22;9179;50.968;3.134;2023-05-21T09:32:40;28.60;87.60
18105;DHT22;9179;50.968;3.134;2023-05-21T09:35:08;27.40;87.20
18105;DHT22;9179;50.968;3.134;2023-05-21T09:37:39;26.80;88.20
18105;DHT22;9179;50.968;3.134;2023-05-21T09:40:14;27.00;88.60
18105;DHT22;9179;50.968;3.134;2023-05-21T09:42:43;26.60;88.10
18105;DHT22;9179;50.968;3.134;2023-05-21T09:45:11;26.20;89.60
18105;DHT22;9179;50.968;3.134;2023-05-21T09:47:41;26.70;89.50
18105;DHT22;9179;50.968;3.134;2023-05-21T09:50:10;27.30;89.30
18105;DHT22;9179;50.968;3.134;2023-05-21T09:52:37;27.80;87.50
18105;DHT22;9179;50.968;3.134;2023-05-21T09:55:05;27.60;86.60
18105;DHT22;9179;50.968;3.134;2023-05-21T09:57:39;27.80;86.00
18105;DHT22;9179;50.968;3.134;2023-05-21T10:00:08;28.00;85.00
18105;DHT22;9179;50.968;3.134;2023-05-21T10:02:38;27.20;84.80
18105;DHT22;9179;50.968;3.134;2023-05-21T10:05:08;26.80;87.10
18105;DHT22;9179;50.968;3.134;2023-05-21T10:07:36;27.40;88.30
18105;DHT22;9179;50.968;3.134;2023-05-21T10:10:06;27.80;86.30
18105;DHT22;9179;50.968;3.134;2023-05-21T10:12:35;27.60;85.70
18105;DHT22;9179;50.968;3.134;2023-05-21T10:15:03;27.90;85.70
18105;DHT22;9179;50.968;3.134;2023-05-21T10:17:30;28.50;85.30
18105;DHT22;9179;50.968;3.134;2023-05-21T10:19:58;29.50;84.00
18105;DHT22;9179;50.968;3.134;2023-05-21T10:22:25;29.80;81.20
18105;DHT22;9179;50.968;3.134;2023-05-21T10:24:53;29.80;80.50
18105;DHT22;9179;50.968;3.134;2023-05-21T10:27:21;29.60;80.20
18105;DHT22;9179;50.968;3.134;2023-05-21T10:29:52;29.00;81.30
18105;DHT22;9179;50.968;3.134;2023-05-21T10:32:20;28.70;81.80
18105;DHT22;9179;50.968;3.134;2023-05-21T10:34:48;28.20;81.70
18105;DHT22;9179;50.968;3.134;2023-05-21T10:37:22;28.00;82.60
18105;DHT22;9179;50.968;3.134;2023-05-21T10:39:51;28.80;83.50
18105;DHT22;9179;50.968;3.134;2023-05-21T10:42:20;29.20;82.50
18105;DHT22;9179;50.968;3.134;2023-05-21T10:45:05;29.10;80.40
18105;DHT22;9179;50.968;3.134;2023-05-21T10:47:52;27.40;82.50
18105;DHT22;9179;50.968;3.134;2023-05-21T10:50:47;26.50;84.80
18105;DHT22;9179;50.968;3.134;2023-05-21T10:53:21;25.90;88.20
18105;DHT22;9179;50.968;3.134;2023-05-21T10:55:59;26.70;88.00
18105;DHT22;9179;50.968;3.134;2023-05-21T10:58:43;27.20;87.60
18105;DHT22;9179;50.968;3.134;2023-05-21T11:01:16;27.90;86.60
18105;DHT22;9179;50.968;3.134;2023-05-21T11:03:45;26.70;87.40
18105;DHT22;9179;50.968;3.134;2023-05-21T11:06:21;26.90;90.00
18105;DHT22;9179;50.968;3.134;2023-05-21T11:08:49;27.00;89.40
18105;DHT22;9179;50.968;3.134;2023-05-21T11:11:39;26.80;89.10
18105;DHT22;9179;50.968;3.134;2023-05-21T11:14:26;26.90;90.10
18105;DHT22;9179;50.968;3.134;2023-05-21T11:16:55;26.30;90.10
18105;DHT22;9179;50.968;3.134;2023-05-21T11:19:33;25.30;91.30
18105;DHT22;9179;50.968;3.134;2023-05-21T11:22:00;26.30;91.80
18105;DHT22;9179;50.968;3.134;2023-05-21T11:24:31;25.90;91.10
18105;DHT22;9179;50.968;3.134;2023-05-21T11:27:02;26.60;91.90
18105;DHT22;9179;50.968;3.134;2023-05-21T11:29:41;26.50;91.30
18105;DHT22;9179;50.968;3.134;2023-05-21T11:32:11;26.60;91.80
18105;DHT22;9179;50.968;3.134;2023-05-21T11:34:41;26.90;91.60
18105;DHT22;9179;50.968;3.134;2023-05-21T11:37:28;27.40;91.00
18105;DHT22;9179;50.968;3.134;2023-05-21T11:39:57;27.60;90.80
18105;DHT22;9179;50.968;3.134;2023-05-21T11:42:29;27.70;90.50
18105;DHT22;9179;50.968;3.134;2023-05-21T11:44:57;27.10;90.20
18105;DHT22;9179;50.968;3.134;2023-05-21T11:47:26;26.50;90.90
18105;DHT22;9179;50.968;3.134;2023-05-21T11:49:53;25.90;91.40
18105;DHT22;9179;50.968;3.134;2023-05-21T11:52:21;25.30;91.70
18105;DHT22;9179;50.968;3.134;2023-05-21T11:54:51;26.00;92.40
18105;DHT22;9179;50.968;3.134;2023-05-21T11:57:20;27.40;91.90
18105;DHT22;9179;50.968;3.134;2023-05-21T11:59:48;27.70;90.60
18105;DHT22;9179;50.968;3.134;2023-05-21T12:02:17;28.40;90.20
18105;DHT22;9179;50.968;3.134;2023-05-21T12:04:46;28.20;87.80
18105;DHT22;9179;50.968;3.134;2023-05-21T12:07:15;27.00;88.60
18105;DHT22;9179;50.968;3.134;2023-05-21T12:09:43;26.10;90.40
18105;DHT22;9179;50.968;3.134;2023-05-21T12:12:11;25.70;91.10
18105;DHT22;9179;50.968;3.134;2023-05-21T12:14:42;25.00;91.70
18105;DHT22;9179;50.968;3.134;2023-05-21T12:17:10;25.30;92.10
18105;DHT22;9179;50.968;3.134;2023-05-21T12:19:39;25.00;92.20
18105;DHT22;9179;50.968;3.134;2023-05-21T12:22:08;25.30;92.70
18105;DHT22;9179;50.968;3.134;2023-05-21T12:24:36;25.20;92.50
18105;DHT22;9179;50.968;3.134;2023-05-21T12:27:04;25.10;92.40
18105;DHT22;9179;50.968;3.134;2023-05-21T12:29:35;25.00;92.50
18105;DHT22;9179;50.968;3.134;2023-05-21T12:32:03;25.40;92.20
18105;DHT22;9179;50.968;3.134;2023-05-21T12:34:39;25.30;91.70
18105;DHT22;9179;50.968;3.134;2023-05-21T12:37:10;25.30;92.10
18105;DHT22;9179;50.968;3.134;2023-05-21T12:39:38;25.70;92.30
18105;DHT22;9179;50.968;3.134;2023-05-21T12:42:06;26.10;91.60
18105;DHT22;9179;50.968;3.134;2023-05-21T12:44:33;26.30;90.90
18105;DHT22;9179;50.968;3.134;2023-05-21T12:47:01;25.50;91.50
18105;DHT22;9179;50.968;3.134;2023-05-21T12:49:36;25.60;92.00
18105;DHT22;9179;50.968;3.134;2023-05-21T12:52:04;26.00;91.80
18105;DHT22;9179;50.968;3.134;2023-05-21T12:54:35;25.40;91.40
18105;DHT22;9179;50.968;3.134;2023-05-21T12:57:10;25.30;91.80
18105;DHT22;9179;50.968;3.134;2023-05-21T12:59:50;25.50;91.70
18105;DHT22;9179;50.968;3.134;2023-05-21T13:02:21;25.20;92.40
18105;DHT22;9179;50.968;3.134;2023-05-21T13:04:54;26.30;92.30
18105;DHT22;9179;50.968;3.134;2023-05-21T13:07:22;26.80;90.80
18105;DHT22;9179;50.968;3.134;2023-05-21T13:09:50;26.80;90.60
18105;DHT22;9179;50.968;3.134;2023-05-21T13:12:18;27.00;90.50
18105;DHT22;9179;50.968;3.134;2023-05-21T13:14:47;26.90;90.40
18105;DHT22;9179;50.968;3.134;2023-05-21T13:17:14;27.40;89.20
18105;DHT22;9179;50.968;3.134;2023-05-21T13:19:41;26.60;89.40
18105;DHT22;9179;50.968;3.134;2023-05-21T13:22:08;26.50;90.60
18105;DHT22;9179;50.968;3.134;2023-05-21T13:24:36;26.20;90.40
18105;DHT22;9179;50.968;3.134;2023-05-21T13:27:05;25.60;91.30
18105;DHT22;9179;50.968;3.134;2023-05-21T13:29:32;25.60;91.10
18105;DHT22;9179;50.968;3.134;2023-05-21T13:32:00;25.10;91.40
18105;DHT22;9179;50.968;3.134;2023-05-21T13:34:27;24.30;92.50
18105;DHT22;9179;50.968;3.134;2023-05-21T13:36:54;23.70;93.70
18105;DHT22;9179;50.968;3.134;2023-05-21T13:39:21;23.40;94.20
18105;DHT22;9179;50.968;3.134;2023-05-21T13:41:52;23.70;94.40
18105;DHT22;9179;50.968;3.134;2023-05-21T13:44:20;23.30;94.40
18105;DHT22;9179;50.968;3.134;2023-05-21T13:46:47;23.00;94.90
18105;DHT22;9179;50.968;3.134;2023-05-21T13:49:14;22.80;95.20
18105;DHT22;9179;50.968;3.134;2023-05-21T13:51:41;22.70;95.20
18105;DHT22;9179;50.968;3.134;2023-05-21T13:54:08;22.40;95.50
18105;DHT22;9179;50.968;3.134;2023-05-21T13:56:36;22.20;95.80
18105;DHT22;9179;50.968;3.134;2023-05-21T13:59:03;22.10;96.10
18105;DHT22;9179;50.968;3.134;2023-05-21T14:01:31;22.20;96.30
18105;DHT22;9179;50.968;3.134;2023-05-21T14:03:58;22.00;96.50
18105;DHT22;9179;50.968;3.134;2023-05-21T14:06:29;21.80;96.90
18105;DHT22;9179;50.968;3.134;2023-05-21T14:08:56;21.80;97.20
18105;DHT22;9179;50.968;3.134;2023-05-21T14:11:23;22.20;97.20
18105;DHT22;9179;50.968;3.134;2023-05-21T14:13:51;22.40;97.00
18105;DHT22;9179;50.968;3.134;2023-05-21T14:16:18;23.10;96.80
18105;DHT22;9179;50.968;3.134;2023-05-21T14:18:46;23.40;95.90
18105;DHT22;9179;50.968;3.134;2023-05-21T14:21:13;23.40;95.80
18105;DHT22;9179;50.968;3.134;2023-05-21T14:23:40;23.70;95.50
18105;DHT22;9179;50.968;3.134;2023-05-21T14:26:07;24.00;95.00
18105;DHT22;9179;50.968;3.134;2023-05-21T14:28:34;24.00;95.00
18105;DHT22;9179;50.968;3.134;2023-05-21T14:31:01;24.10;94.70
18105;DHT22;9179;50.968;3.134;2023-05-21T14:33:30;23.50;94.70
18105;DHT22;9179;50.968;3.134;2023-05-21T14:35:59;23.60;95.10
18105;DHT22;9179;50.968;3.134;2023-05-21T14:38:25;23.80;94.90
18105;DHT22;9179;50.968;3.134;2023-05-21T14:40:53;23.60;94.40
18105;DHT22;9179;50.968;3.134;2023-05-21T14:43:21;23.30;94.40
18105;DHT22;9179;50.968;3.134;2023-05-21T14:45:48;23.30;94.60
18105;DHT22;9179;50.968;3.134;2023-05-21T14:48:16;23.70;94.40
18105;DHT22;9179;50.968;3.134;2023-05-21T14:50:47;23.30;94.40
18105;DHT22;9179;50.968;3.134;2023-05-21T14:53:16;23.30;94.40
18105;DHT22;9179;50.968;3.134;2023-05-21T14:55:44;23.30;94.20
18105;DHT22;9179;50.968;3.134;2023-05-21T14:58:11;23.40;93.80
18105;DHT22;9179;50.968;3.134;2023-05-21T15:00:38;23.70;93.10
18105;DHT22;9179;50.968;3.134;2023-05-21T15:03:05;23.80;93.20
18105;DHT22;9179;50.968;3.134;2023-05-21T15:05:32;24.10;92.90
18105;DHT22;9179;50.968;3.134;2023-05-21T15:08:00;24.00;92.60
18105;DHT22;9179;50.968;3.134;2023-05-21T15:10:30;24.20;92.50
18105;DHT22;9179;50.968;3.134;2023-05-21T15:12:57;25.00;92.00
18105;DHT22;9179;50.968;3.134;2023-05-21T15:15:23;25.70;91.40
18105;DHT22;9179;50.968;3.134;2023-05-21T15:17:50;26.80;89.00
18105;DHT22;9179;50.968;3.134;2023-05-21T15:20:17;26.50;88.10
18105;DHT22;9179;50.968;3.134;2023-05-21T15:22:45;25.90;89.40
18105;DHT22;9179;50.968;3.134;2023-05-21T15:25:14;25.20;90.10
18105;DHT22;9179;50.968;3.134;2023-05-21T15:27:45;24.60;90.90
18105;DHT22;9179;50.968;3.134;2023-05-21T15:30:12;24.10;91.30
18105;DHT22;9179;50.968;3.134;2023-05-21T15:32:39;23.70;91.80
18105;DHT22;9179;50.968;3.134;2023-05-21T15:35:06;23.10;92.50
18105;DHT22;9179;50.968;3.134;2023-05-21T15:37:33;23.10;92.90
18105;DHT22;9179;50.968;3.134;2023-05-21T15:40:00;23.20;92.90
18105;DHT22;9179;50.968;3.134;2023-05-21T15:42:27;23.20;93.30
18105;DHT22;9179;50.968;3.134;2023-05-21T15:44:57;23.00;93.80
18105;DHT22;9179;50.968;3.134;2023-05-21T15:47:24;22.80;94.10
18105;DHT22;9179;50.968;3.134;2023-05-21T15:49:51;22.90;94.20
18105;DHT22;9179;50.968;3.134;2023-05-21T15:52:18;23.10;94.10